Time;durP1;ratioP1;P1;durP2;ratioP2;P2;SDS_P1;SDS_P2;PMS_P1;PMS_P2;Temp;Humidity;BMP_temperature;BMP_pressure;BME280_temperature;BME280_humidity;BME280_pressure;Samples;Min_cycle;Max_cycle;Signal;HPM_P1;HPM_P2
2021/03/01 00:00:05;;;;;;;26.95;14.95;;;;;;;3.09;80.28;102471.53;1711151;83;21112;-71
2021/03/01 00:02:33;;;;;;;25.82;14.47;;;;;;;3.08;80.26;102473.77;1711110;83;21617;-71
2021/03/01 00:05:00;;;;;;;23.77;13.25;;;;;;;3.07;80.26;102470.73;1711011;82;21191;-72
2021/03/01 00:07:26;;;;;;;26.10;13.75;;;;;;;3.08;80.27;102468.95;1711081;83;21187;-71
2021/03/01 00:09:52;;;;;;;25.65;12.90;;;;;;;3.09;80.27;102467.58;1711057;83;21140;-72
2021/03/01 00:12:18;;;;;;;28.52;14.60;;;;;;;3.09;80.29;102474.63;1711114;83;21120;-71
2021/03/01 00:14:45;;;;;;;27.87;15.65;;;;;;;3.10;80.30;102469.27;1711040;83;21209;-72
2021/03/01 00:17:11;;;;;;;42.93;23.80;;;;;;;3.11;80.30;102467.48;1711185;82;21140;-72
2021/03/01 00:19:37;;;;;;;48.13;28.05;;;;;;;3.09;80.29;102460.98;1710895;83;21148;-72
2021/03/01 00:22:03;;;;;;;59.73;39.25;;;;;;;3.08;80.34;102469.81;1710997;83;21223;-72
2021/03/01 00:24:30;;;;;;;55.03;31.62;;;;;;;3.09;80.37;102478.12;1710800;82;21160;-72
2021/03/01 00:26:56;;;;;;;41.75;22.20;;;;;;;3.10;80.38;102472.39;1711109;82;21278;-72
2021/03/01 00:29:22;;;;;;;40.12;20.02;;;;;;;3.06;80.38;102463.77;1711106;82;21124;-71
2021/03/01 00:31:49;;;;;;;33.35;17.77;;;;;;;3.04;80.39;102461.65;1711153;82;21558;-71
2021/03/01 00:34:15;;;;;;;38.85;18.40;;;;;;;3.03;80.37;102463.42;1711246;82;21160;-72
2021/03/01 00:36:41;;;;;;;37.50;17.98;;;;;;;3.04;80.40;102464.28;1710980;82;21569;-71
2021/03/01 00:39:08;;;;;;;43.38;20.25;;;;;;;3.06;80.41;102467.72;1711087;83;21246;-71
2021/03/01 00:41:34;;;;;;;39.58;19.45;;;;;;;3.07;80.42;102462.82;1710871;83;21187;-72
2021/03/01 00:44:00;;;;;;;41.65;20.57;;;;;;;3.07;80.44;102471.19;1711210;83;21148;-72
2021/03/01 00:46:27;;;;;;;48.50;26.52;;;;;;;3.06;80.46;102466.41;1714563;82;21582;-72
2021/03/01 00:48:53;;;;;;;50.73;32.23;;;;;;;3.06;80.50;102457.18;1721117;83;21156;-71
2021/03/01 00:51:19;;;;;;;61.80;39.30;;;;;;;3.06;80.49;102459.81;1721066;83;21204;-71
2021/03/01 00:53:45;;;;;;;51.83;26.68;;;;;;;3.05;80.54;102460.73;1720848;83;21144;-72
2021/03/01 00:56:12;;;;;;;44.13;26.27;;;;;;;3.06;80.54;102454.55;1721253;82;21180;-72
2021/03/01 00:58:38;;;;;;;126.33;55.43;;;;;;;3.07;80.55;102460.64;1720976;83;21131;-71
2021/03/01 01:01:04;;;;;;;63.23;26.70;;;;;;;3.08;80.57;102463.22;1721083;83;21180;-71
2021/03/01 01:03:31;;;;;;;96.08;31.48;;;;;;;3.11;80.58;102461.75;1721020;83;21864;-72
2021/03/01 01:05:57;;;;;;;51.30;20.72;;;;;;;3.11;80.58;102460.44;1720985;83;21609;-72
2021/03/01 01:08:24;;;;;;;37.45;16.40;;;;;;;3.13;80.59;102462.52;1720928;83;21184;-72
2021/03/01 01:10:51;;;;;;;32.75;15.48;;;;;;;3.15;80.62;102465.97;1720774;83;21144;-71
2021/03/01 01:13:17;;;;;;;39.45;18.80;;;;;;;3.16;80.62;102469.00;1721121;83;21148;-71
2021/03/01 01:15:44;;;;;;;33.78;18.52;;;;;;;3.20;80.66;102467.91;1720813;83;21257;-71
2021/03/01 01:18:10;;;;;;;38.73;22.25;;;;;;;3.23;80.69;102471.74;1721065;83;21207;-71
2021/03/01 01:20:37;;;;;;;36.93;19.73;;;;;;;3.22;80.71;102478.39;1720997;83;21476;-71
2021/03/01 01:23:03;;;;;;;50.40;22.50;;;;;;;3.22;80.71;102484.52;1721139;82;21590;-71
2021/03/01 01:25:29;;;;;;;39.27;18.40;;;;;;;3.22;80.74;102489.80;1721018;83;21600;-71
2021/03/01 01:27:56;;;;;;;39.33;18.48;;;;;;;3.22;80.74;102479.25;1720995;83;21254;-71
2021/03/01 01:30:24;;;;;;;41.53;19.50;;;;;;;3.23;80.75;102480.97;1721139;83;21176;-72
2021/03/01 01:32:51;;;;;;;39.30;17.95;;;;;;;3.23;80.75;102487.56;1720950;83;21596;-71
2021/03/01 01:35:18;;;;;;;45.78;20.00;;;;;;;3.25;80.77;102490.11;1721060;83;21149;-71
2021/03/01 01:37:44;;;;;;;34.50;16.50;;;;;;;3.25;80.77;102489.65;1720841;83;21204;-71
2021/03/01 01:40:13;;;;;;;35.00;15.50;;;;;;;3.27;80.76;102486.46;1721138;83;21281;-71
2021/03/01 01:42:40;;;;;;;28.50;14.45;;;;;;;3.29;80.78;102485.94;1696648;83;21168;-71
2021/03/01 01:45:10;;;;;;;28.92;14.93;;;;;;;3.32;80.77;102480.52;1720933;82;21616;-71
2021/03/01 01:47:36;;;;;;;43.02;19.12;;;;;;;3.35;80.75;102479.05;1708092;82;21585;-71
2021/03/01 01:50:05;;;;;;;31.80;16.00;;;;;;;3.37;80.76;102478.54;1701788;84;21133;-71
2021/03/01 01:52:32;;;;;;;34.60;17.60;;;;;;;3.40;80.81;102477.06;1702338;84;21221;-71
2021/03/01 01:54:58;;;;;;;34.60;17.35;;;;;;;3.44;80.82;102477.78;1702292;84;21613;-71
2021/03/01 01:57:24;;;;;;;36.63;18.48;;;;;;;3.43;80.82;102467.69;1702371;84;21124;-71
2021/03/01 01:59:51;;;;;;;42.73;19.42;;;;;;;3.45;80.83;102468.91;1682420;84;21152;-71
2021/03/01 02:02:17;;;;;;;30.43;15.93;;;;;;;3.45;80.87;102471.09;1702367;84;21149;-71
2021/03/01 02:04:48;;;;;;;33.30;15.35;;;;;;;3.47;80.86;102469.25;1702375;84;21930;-71
2021/03/01 02:07:28;;;;;;;33.25;17.67;;;;;;;3.46;80.87;102464.04;1701970;84;21168;-71
2021/03/01 02:10:15;;;;;;;30.52;16.17;;;;;;;3.45;80.85;102465.81;1702447;84;21672;-71
2021/03/01 02:13:16;;;;;;;28.30;13.93;;;;;;;3.44;80.84;102461.49;1682310;84;21173;-71
2021/03/01 02:15:56;;;;;;;27.02;12.90;;;;;;;3.43;80.82;102455.82;1702160;83;21160;-71
2021/03/01 02:18:23;;;;;;;36.40;15.78;;;;;;;3.43;80.82;102453.64;1702490;84;22192;-72
2021/03/01 02:20:49;;;;;;;23.30;12.25;;;;;;;3.41;80.82;102451.06;1702241;84;21167;-72
2021/03/01 02:23:16;;;;;;;23.60;11.57;;;;;;;3.41;80.82;102452.88;1702148;84;21184;-72
2021/03/01 02:25:51;;;;;;;20.85;11.57;;;;;;;3.41;80.82;102448.42;1702215;84;21157;-71
2021/03/01 02:28:17;;;;;;;27.15;14.70;;;;;;;3.41;80.83;102444.47;1702396;84;21128;-72
2021/03/01 02:30:46;;;;;;;58.15;32.60;;;;;;;3.40;80.85;102445.42;1702547;82;21667;-72
2021/03/01 02:33:20;;;;;;;53.98;20.55;;;;;;;3.40;80.86;102445.42;1702446;84;21164;-72
2021/03/01 02:36:00;;;;;;;40.80;16.95;;;;;;;3.40;80.87;102440.61;1702557;84;21144;-71
2021/03/01 02:38:29;;;;;;;35.00;15.43;;;;;;;3.39;80.89;102444.16;1702270;84;21148;-72
2021/03/01 02:40:56;;;;;;;58.40;22.22;;;;;;;3.36;80.89;102439.90;1702376;84;21546;-71
2021/03/01 02:43:23;;;;;;;34.70;16.30;;;;;;;3.36;80.92;102443.86;1702459;82;21279;-71
2021/03/01 02:45:49;;;;;;;30.92;15.78;;;;;;;3.36;80.91;102450.45;1702184;82;21157;-71
2021/03/01 02:48:15;;;;;;;49.55;22.15;;;;;;;3.35;80.92;102450.05;1709735;83;21541;-71
2021/03/01 02:50:44;;;;;;;38.05;16.10;;;;;;;3.34;80.93;102445.69;1710877;82;21156;-71
2021/03/01 02:53:13;;;;;;;35.48;15.25;;;;;;;3.33;80.90;102444.01;1694465;83;21112;-71
2021/03/01 02:55:42;;;;;;;39.08;19.25;;;;;;;3.37;80.92;102454.80;1710810;83;22095;-71
2021/03/01 02:58:09;;;;;;;27.42;13.48;;;;;;;3.38;80.95;102451.22;1711257;83;21199;-71
2021/03/01 03:00:36;;;;;;;28.57;13.72;;;;;;;3.40;80.94;102453.33;1711033;82;21181;-71
2021/03/01 03:03:04;;;;;;;32.90;14.90;;;;;;;3.44;80.97;102454.91;1710908;83;21124;-71
2021/03/01 03:05:31;;;;;;;30.68;14.20;;;;;;;3.47;80.98;102462.66;1710942;83;21140;-71
2021/03/01 03:07:57;;;;;;;48.92;21.68;;;;;;;3.48;81.00;102456.92;1710846;83;21216;-71
2021/03/01 03:10:23;;;;;;;32.90;16.52;;;;;;;3.49;80.99;102452.02;1711151;83;21619;-71
2021/03/01 03:12:50;;;;;;;36.93;18.20;;;;;;;3.48;80.99;102440.61;1710912;82;21181;-71
2021/03/01 03:15:19;;;;;;;29.50;17.15;;;;;;;3.45;80.99;102443.86;1710889;83;21132;-71
2021/03/01 03:17:45;;;;;;;30.33;14.30;;;;;;;3.42;81.00;102438.28;1711270;83;21151;-71
2021/03/01 03:20:12;;;;;;;32.05;15.58;;;;;;;3.40;81.00;102442.78;1710931;82;21517;-71
2021/03/01 03:22:39;;;;;;;30.77;15.80;;;;;;;3.38;81.00;102443.30;1711008;83;21502;-71
2021/03/01 03:25:06;;;;;;;32.42;18.17;;;;;;;3.35;80.98;102447.41;1710912;82;21168;-71
2021/03/01 03:27:33;;;;;;;34.65;20.90;;;;;;;3.33;80.99;102437.42;1711230;82;21172;-71
2021/03/01 03:29:59;;;;;;;30.23;17.35;;;;;;;3.33;80.99;102440.05;1711086;82;21139;-71
2021/03/01 03:32:27;;;;;;;31.80;15.65;;;;;;;3.32;80.99;102446.25;1711260;82;21204;-71
2021/03/01 03:34:53;;;;;;;31.15;15.83;;;;;;;3.32;81.00;102443.61;1710985;83;21188;-71
2021/03/01 03:37:42;;;;;;;31.30;15.32;;;;;;;3.33;81.01;102450.59;1710971;82;21155;-71
2021/03/01 03:40:09;;;;;;;30.43;16.57;;;;;;;3.33;81.03;102450.59;1711304;83;21228;-71
2021/03/01 03:42:35;;;;;;;27.40;13.25;;;;;;;3.33;81.04;102447.96;1711014;83;21116;-71
2021/03/01 03:45:04;;;;;;;26.77;13.75;;;;;;;3.33;81.08;102451.06;1694802;83;21218;-71
2021/03/01 03:47:30;;;;;;;27.10;13.50;;;;;;;3.31;81.06;102449.80;1707394;82;21188;-71
2021/03/01 03:49:56;;;;;;;24.85;13.85;;;;;;;3.30;81.09;102445.48;1702467;84;21168;-71
2021/03/01 03:52:29;;;;;;;25.97;14.98;;;;;;;3.30;81.09;102451.20;1702482;84;22216;-71
2021/03/01 03:54:56;;;;;;;32.65;22.52;;;;;;;3.30;81.10;102454.70;1702394;84;21112;-71
2021/03/01 03:57:23;;;;;;;54.88;35.15;;;;;;;3.30;81.10;102454.70;1682500;84;21230;-71
2021/03/01 03:59:52;;;;;;;45.25;28.40;;;;;;;3.30;81.12;102449.43;1702437;84;21151;-71
2021/03/01 04:02:18;;;;;;;43.77;31.40;;;;;;;3.30;81.10;102445.48;1702825;84;21157;-71
2021/03/01 04:04:45;;;;;;;34.65;23.27;;;;;;;3.30;81.09;102450.75;1702277;82;21168;-71
2021/03/01 04:07:11;;;;;;;28.95;17.57;;;;;;;3.30;81.10;102453.39;1702512;84;21161;-71
2021/03/01 04:09:41;;;;;;;28.32;17.37;;;;;;;3.30;81.13;102445.48;1702544;84;21208;-71
2021/03/01 04:12:10;;;;;;;26.85;15.32;;;;;;;3.29;81.14;102441.13;1702405;84;21159;-71
2021/03/01 04:14:36;;;;;;;29.82;15.00;;;;;;;3.31;81.16;102440.57;1682717;84;21585;-71
2021/03/01 04:17:05;;;;;;;26.77;15.53;;;;;;;3.32;81.17;102446.70;1702260;84;21152;-71
2021/03/01 04:19:32;;;;;;;26.87;15.23;;;;;;;3.32;81.22;102450.66;1702529;84;21610;-71
2021/03/01 04:21:58;;;;;;;33.92;17.42;;;;;;;3.29;81.21;102442.44;1659437;84;22204;-71
2021/03/01 04:24:25;;;;;;;27.62;15.50;;;;;;;3.30;81.24;102443.30;1702320;84;21637;-71
2021/03/01 04:26:52;;;;;;;27.98;15.08;;;;;;;3.28;81.24;102442.04;1702457;84;21585;-71
2021/03/01 04:29:18;;;;;;;36.48;19.55;;;;;;;3.27;81.24;102446.09;1702223;84;21176;-71
2021/03/01 04:31:45;;;;;;;28.67;15.48;;;;;;;3.27;81.24;102442.95;1702607;84;21140;-71
2021/03/01 04:34:11;;;;;;;27.80;14.05;;;;;;;3.25;81.24;102443.97;1702253;84;22100;-71
2021/03/01 04:36:38;;;;;;;25.10;13.88;;;;;;;3.23;81.23;102448.47;1682250;84;21151;-71
2021/03/01 04:39:05;;;;;;;26.05;13.65;;;;;;;3.20;81.24;102452.08;1682456;84;21179;-71
2021/03/01 04:41:34;;;;;;;27.80;14.40;;;;;;;3.20;81.24;102459.17;1702563;84;21152;-71
2021/03/01 04:44:04;;;;;;;25.95;13.78;;;;;;;3.19;81.24;102458.77;1702676;84;22399;-71
2021/03/01 04:46:30;;;;;;;25.32;14.63;;;;;;;3.19;81.25;102460.95;1702542;84;21267;-71
2021/03/01 04:48:56;;;;;;;34.92;16.60;;;;;;;3.22;81.29;102459.48;1710132;82;21177;-71
2021/03/01 04:51:26;;;;;;;32.42;16.42;;;;;;;3.24;81.30;102455.43;1710745;82;21175;-73
2021/03/01 04:53:55;;;;;;;32.75;17.62;;;;;;;3.24;81.31;102458.92;1711182;83;21687;-71
2021/03/01 04:56:22;;;;;;;41.60;19.62;;;;;;;3.24;81.34;102458.06;1711128;83;21121;-71
2021/03/01 04:58:48;;;;;;;36.25;19.17;;;;;;;3.24;81.36;102461.56;1694648;83;21302;-71
2021/03/01 05:01:14;;;;;;;36.98;18.32;;;;;;;3.23;81.36;102462.52;1711061;83;21577;-71
2021/03/01 05:03:41;;;;;;;35.78;18.32;;;;;;;3.22;81.38;102465.21;1710963;82;21140;-71
2021/03/01 05:06:07;;;;;;;39.00;20.75;;;;;;;3.20;81.38;102459.99;1711119;83;21168;-71
2021/03/01 05:08:34;;;;;;;42.08;22.55;;;;;;;3.20;81.39;102458.67;1710920;83;21172;-71
2021/03/01 05:11:04;;;;;;;49.67;24.50;;;;;;;3.16;81.37;102461.09;1710980;83;21257;-70
2021/03/01 05:13:30;;;;;;;52.48;28.35;;;;;;;3.16;81.37;102469.00;1672173;83;21124;-71
2021/03/01 05:15:56;;;;;;;45.05;22.52;;;;;;;3.18;81.39;102467.13;1711140;83;21131;-72
2021/03/01 05:18:23;;;;;;;34.85;19.67;;;;;;;3.18;81.40;102465.81;1711057;82;21632;-71
2021/03/01 05:20:49;;;;;;;37.80;19.82;;;;;;;3.18;81.41;102459.22;1710918;83;21144;-72
2021/03/01 05:23:15;;;;;;;35.75;19.23;;;;;;;3.17;81.41;102464.55;1711280;83;21213;-72
2021/03/01 05:25:41;;;;;;;34.95;18.30;;;;;;;3.18;81.44;102464.50;1710675;83;21545;-71
2021/03/01 05:28:08;;;;;;;43.35;21.93;;;;;;;3.19;81.45;102466.67;1711085;83;21184;-71
2021/03/01 05:30:34;;;;;;;50.10;25.62;;;;;;;3.19;81.47;102474.13;1710965;83;21152;-71
2021/03/01 05:33:01;;;;;;;48.65;33.28;;;;;;;3.22;81.49;102477.94;1711122;82;21120;-71
2021/03/01 05:35:27;;;;;;;45.70;30.48;;;;;;;3.21;81.50;102470.94;1710810;83;21267;-71
2021/03/01 05:37:54;;;;;;;47.67;29.82;;;;;;;3.19;81.53;102471.48;1710975;82;21195;-71
2021/03/01 05:40:20;;;;;;;41.55;21.90;;;;;;;3.18;81.53;102474.19;1711118;82;21641;-71
2021/03/01 05:42:46;;;;;;;38.50;20.60;;;;;;;3.16;81.56;102474.27;1710749;83;21172;-73
2021/03/01 05:45:13;;;;;;;43.10;20.15;;;;;;;3.14;81.55;102481.84;1711107;83;21163;-72
2021/03/01 05:47:40;;;;;;;39.40;20.65;;;;;;;3.12;81.55;102475.80;1710941;83;21214;-73
2021/03/01 05:50:09;;;;;;;40.12;21.50;;;;;;;3.13;81.56;102476.20;1710927;82;21136;-73
2021/03/01 05:52:36;;;;;;;37.50;19.85;;;;;;;3.14;81.57;102476.11;1711108;82;21214;-73
2021/03/01 05:55:05;;;;;;;35.78;17.57;;;;;;;3.15;81.57;102472.55;1711002;83;21192;-73
2021/03/01 05:57:32;;;;;;;39.78;18.82;;;;;;;3.15;81.59;102471.23;1711056;82;21553;-72
2021/03/01 06:00:00;;;;;;;41.85;22.75;;;;;;;3.16;81.60;102476.91;1710569;83;22093;-72
2021/03/01 06:02:26;;;;;;;50.15;25.50;;;;;;;3.18;81.62;102475.05;1710988;83;21140;-72
2021/03/01 06:04:53;;;;;;;43.55;22.58;;;;;;;3.20;81.64;102481.08;1710776;83;21676;-72
2021/03/01 06:07:20;;;;;;;38.55;20.80;;;;;;;3.19;81.64;102479.39;1711101;83;21188;-72
2021/03/01 06:09:46;;;;;;;107.03;36.63;;;;;;;3.18;81.67;102481.63;1710938;83;21580;-71
2021/03/01 06:12:12;;;;;;;54.90;23.10;;;;;;;3.19;81.71;102482.03;1711088;83;21159;-72
2021/03/01 06:17:31;;;;;;;43.87;20.32;;;;;;;3.20;81.72;102485.03;1776527;79;21172;-72
2021/03/01 06:20:01;;;;;;;37.28;19.62;;;;;;;3.21;81.72;102495.13;1760169;81;21143;-72
2021/03/01 06:22:44;;;;;;;40.00;19.37;;;;;;;3.22;81.72;102484.52;1760306;81;21115;-72
2021/03/01 06:25:13;;;;;;;42.23;19.05;;;;;;;3.24;81.71;102487.06;1760464;81;21191;-72
2021/03/01 06:27:58;;;;;;;45.60;22.17;;;;;;;3.26;81.72;102491.37;1756855;81;21564;-71
2021/03/01 06:30:28;;;;;;;48.52;20.48;;;;;;;3.28;81.74;102497.41;1740687;80;21147;-72
2021/03/01 06:33:17;;;;;;;40.08;20.82;;;;;;;3.30;81.74;102498.67;1759919;80;21566;-72
2021/03/01 06:35:53;;;;;;;43.65;23.02;;;;;;;3.30;81.73;102502.16;1760129;81;21136;-71
2021/03/01 06:38:29;;;;;;;43.55;21.93;;;;;;;3.31;81.74;102499.89;1760004;81;21173;-71
2021/03/01 06:41:19;;;;;;;36.63;17.60;;;;;;;3.32;81.75;102506.89;1759950;81;21180;-72
2021/03/01 06:44:00;;;;;;;;;;;;;;;3.31;81.75;102510.91;1762613;81;21125;-71
2021/03/01 06:46:31;;;;;;;37.03;17.73;;;;;;;3.30;81.77;102514.03;1760229;81;20244;-71
2021/03/01 06:49:16;;;;;;;32.55;17.27;;;;;;;3.30;81.78;102512.71;1759806;81;21149;-72
2021/03/01 06:51:42;;;;;;;42.93;20.65;;;;;;;3.29;81.79;102514.95;1760270;81;21272;-72
2021/03/01 06:54:09;;;;;;;40.17;20.62;;;;;;;3.30;81.77;102508.76;1760042;81;21603;-72
2021/03/01 06:56:42;;;;;;;33.33;17.55;;;;;;;3.31;81.77;102512.22;1759973;81;21668;-72
2021/03/01 06:59:18;;;;;;;36.85;16.00;;;;;;;3.31;81.75;102508.27;1760465;81;21097;-72
2021/03/01 07:01:50;;;;;;;36.03;17.65;;;;;;;3.31;81.75;102513.54;1760195;81;21745;-72
2021/03/01 07:04:30;;;;;;;47.93;20.95;;;;;;;3.30;81.73;102511.39;1760236;81;21168;-72
2021/03/01 07:06:58;;;;;;;45.35;22.42;;;;;;;3.29;81.71;102511.00;1760270;81;21196;-72
2021/03/01 07:09:30;;;;;;;42.15;19.48;;;;;;;3.31;81.72;102518.36;1760336;81;21569;-72
2021/03/01 07:11:56;;;;;;;39.88;18.48;;;;;;;3.29;81.70;102517.59;1760275;81;21141;-72
2021/03/01 07:14:25;;;;;;;33.65;16.90;;;;;;;3.29;81.72;102522.86;1760147;81;21156;-72
2021/03/01 07:16:56;;;;;;;32.53;16.05;;;;;;;3.30;81.71;102514.03;1764656;81;21179;-72
2021/03/01 07:19:29;;;;;;;33.50;17.92;;;;;;;3.31;81.73;102524.95;1741217;82;21168;-72
2021/03/01 07:22:04;;;;;;;35.13;16.65;;;;;;;3.32;81.74;102531.94;1767464;81;21155;-72
2021/03/01 07:24:32;;;;;;;40.83;18.87;;;;;;;3.32;81.73;102531.94;1767500;81;21559;-72
2021/03/01 07:27:04;;;;;;;39.63;20.37;;;;;;;3.33;81.72;102529.70;1741223;82;21561;-72
2021/03/01 07:29:39;;;;;;;33.35;17.25;;;;;;;3.34;81.72;102539.30;1767330;81;21334;-71
2021/03/01 07:32:07;;;;;;;51.92;23.40;;;;;;;3.30;81.70;102539.54;1761081;81;21149;-71
2021/03/01 07:34:35;;;;;;;45.45;22.25;;;;;;;3.29;81.71;102541.31;1755193;81;21618;-71
2021/03/01 07:37:02;;;;;;;75.32;31.68;;;;;;;3.34;81.72;102543.75;1736852;82;21126;-71
2021/03/01 07:39:29;;;;;;;49.23;20.30;;;;;;;3.39;81.72;102541.27;1736739;82;21667;-72
2021/03/01 07:41:56;;;;;;;41.60;20.40;;;;;;;3.43;81.73;102541.98;1736892;82;21147;-71
2021/03/01 07:44:32;;;;;;;42.40;23.77;;;;;;;3.44;81.72;102548.52;1749316;81;21135;-71
2021/03/01 07:47:12;;;;;;;67.17;29.65;;;;;;;3.53;81.74;102552.04;1815620;77;22494;-73
2021/03/01 07:49:51;;;;;;;42.70;22.35;;;;;;;3.55;81.72;102555.08;1788259;80;20906;-73
2021/03/01 07:52:32;;;;;;;44.43;24.10;;;;;;;3.55;81.71;102560.35;1771989;80;21200;-73
2021/03/01 07:55:05;;;;;;;42.73;23.02;;;;;;;3.53;81.72;102561.27;1775814;78;21088;-73
2021/03/01 07:57:33;;;;;;;40.85;18.25;;;;;;;3.51;81.72;102560.50;1761269;80;21154;-72
2021/03/01 08:00:20;;;;;;;51.10;26.45;;;;;;;3.52;81.71;102572.73;1747399;80;21162;-72
2021/03/01 08:02:46;;;;;;;53.30;22.87;;;;;;;3.52;81.72;102568.78;1756865;80;21154;-73
2021/03/01 08:05:31;;;;;;;33.75;15.98;;;;;;;3.52;81.68;102579.80;1768828;78;21199;-73
2021/03/01 08:07:58;;;;;;;36.50;17.55;;;;;;;3.50;81.66;102566.70;1776143;78;21182;-73
2021/03/01 08:10:36;;;;;;;33.85;17.98;;;;;;;3.46;81.66;102570.39;1777381;80;21212;-72
2021/03/01 08:13:07;;;;;;;32.67;17.23;;;;;;;3.48;81.68;102572.97;1777017;78;21634;-73
2021/03/01 08:15:39;;;;;;;30.05;15.28;;;;;;;3.50;81.66;102569.33;1753874;80;21111;-73
2021/03/01 08:18:06;;;;;;;40.73;20.23;;;;;;;3.55;81.69;102570.91;1744000;80;22388;-73
2021/03/01 08:20:36;;;;;;;37.38;18.02;;;;;;;3.60;81.66;102580.76;1739508;81;21206;-73
2021/03/01 08:23:09;;;;;;;92.10;35.88;;;;;;;3.65;81.67;102586.23;1753004;81;21177;-73
2021/03/01 08:25:50;;;;;;;51.77;25.20;;;;;;;3.69;81.66;102585.63;1748317;81;21148;-74
2021/03/01 08:28:32;;;;;;;49.93;23.47;;;;;;;3.70;81.67;102587.31;1751447;81;21104;-74
2021/03/01 08:31:20;;;;;;;39.63;17.42;;;;;;;3.70;81.66;102589.95;1735811;81;21209;-73
2021/03/01 08:33:46;;;;;;;32.35;17.70;;;;;;;3.72;81.64;102594.70;1738135;81;21154;-73
2021/03/01 08:36:18;;;;;;;33.73;18.15;;;;;;;3.65;81.63;102591.51;1732411;81;21586;-73
2021/03/01 08:38:51;;;;;;;42.27;19.80;;;;;;;3.64;81.62;102587.61;1726079;83;21155;-73
2021/03/01 08:41:19;;;;;;;48.23;23.60;;;;;;;3.65;81.57;102586.69;1746580;81;21154;-74
2021/03/01 08:43:48;;;;;;;36.85;19.35;;;;;;;3.69;81.56;102588.27;1753317;81;21215;-73
2021/03/01 08:46:19;;;;;;;73.40;35.33;;;;;;;3.69;81.53;102586.94;1737257;81;25253;-73
2021/03/01 08:48:48;;;;;;;35.80;19.65;;;;;;;3.67;81.51;102584.82;1728975;83;21158;-73
2021/03/01 08:51:16;;;;;;;36.75;20.70;;;;;;;3.66;81.50;102586.59;1729045;81;21182;-73
2021/03/01 08:53:42;;;;;;;41.92;22.10;;;;;;;3.67;81.50;102584.82;1731073;81;21166;-73
2021/03/01 08:56:26;;;;;;;39.08;20.57;;;;;;;3.69;81.49;102586.94;1728765;83;22085;-73
2021/03/01 08:58:55;;;;;;;46.45;24.30;;;;;;;3.70;81.52;102582.03;1736192;81;21207;-74
2021/03/01 09:01:21;;;;;;;44.03;22.65;;;;;;;3.72;81.51;102580.20;1734873;81;21154;-73
2021/03/01 09:03:47;;;;;;;46.10;22.90;;;;;;;3.73;81.49;102591.16;1747453;81;21159;-73
2021/03/01 09:06:19;;;;;;;45.25;27.13;;;;;;;3.72;81.51;102581.52;1744697;81;21579;-73
2021/03/01 09:08:52;;;;;;;38.80;23.80;;;;;;;3.73;81.52;102584.06;1753803;81;22182;-73
2021/03/01 09:11:28;;;;;;;47.38;25.05;;;;;;;3.77;81.50;102584.77;1757013;81;21131;-74
2021/03/01 09:13:58;;;;;;;45.60;27.40;;;;;;;3.78;81.46;102589.13;1743509;81;21172;-74
2021/03/01 09:16:26;;;;;;;38.65;21.05;;;;;;;3.80;81.48;102592.58;1711891;81;21205;-73
2021/03/01 09:19:02;;;;;;;40.88;20.23;;;;;;;3.83;81.46;102589.78;1743954;80;21611;-74
2021/03/01 09:21:29;;;;;;;35.98;18.55;;;;;;;3.85;81.45;102586.59;1745951;81;21583;-74
2021/03/01 09:23:56;;;;;;;28.83;17.57;;;;;;;3.81;81.43;102582.38;1743912;81;21170;-73
2021/03/01 09:26:38;;;;;;;36.58;20.17;;;;;;;3.80;81.43;102583.34;1740707;81;21206;-74
2021/03/01 09:29:18;;;;;;;37.90;20.20;;;;;;;3.83;81.41;102589.78;1743680;80;21187;-75
2021/03/01 09:31:50;;;;;;;41.13;24.02;;;;;;;3.87;81.42;102586.08;1727710;81;21165;-75
2021/03/01 09:34:17;;;;;;;36.13;20.37;;;;;;;3.93;81.42;102592.37;1743258;81;21296;-75
2021/03/01 09:36:48;;;;;;;37.20;21.40;;;;;;;3.96;81.43;102594.40;1741031;81;21147;-75
2021/03/01 09:39:26;;;;;;;122.65;49.95;;;;;;;3.98;81.43;102589.03;1740154;81;21137;-75
2021/03/01 09:41:54;;;;;;;54.95;30.95;;;;;;;4.00;81.41;102593.79;1741485;81;21153;-75
2021/03/01 09:44:31;;;;;;;38.73;23.10;;;;;;;4.04;81.40;102596.67;1739000;81;21131;-74
2021/03/01 09:46:57;;;;;;;44.38;26.70;;;;;;;4.08;81.36;102593.42;1741569;81;21915;-74
2021/03/01 09:49:26;;;;;;;41.13;21.00;;;;;;;4.04;81.31;102596.67;1740898;81;21192;-74
2021/03/01 09:51:52;;;;;;;34.55;17.55;;;;;;;4.07;81.29;102608.41;1741448;81;21549;-74
2021/03/01 09:54:24;;;;;;;33.55;16.87;;;;;;;4.11;81.28;102609.97;1745734;81;21161;-73
2021/03/01 09:56:53;;;;;;;35.52;19.55;;;;;;;4.15;81.22;102610.67;1746578;81;21607;-73
2021/03/01 09:59:40;;;;;;;48.70;23.60;;;;;;;4.18;81.24;102610.06;1751649;81;22147;-74
2021/03/01 10:02:12;;;;;;;39.50;21.75;;;;;;;4.22;81.22;102611.59;1751114;81;21579;-73
2021/03/01 10:04:39;;;;;;;35.60;18.67;;;;;;;4.26;81.21;102606.56;1745549;81;21145;-73
2021/03/01 10:07:25;;;;;;;74.03;37.58;;;;;;;4.29;81.18;102607.73;1747138;81;21151;-73
2021/03/01 10:09:52;;;;;;;60.95;31.10;;;;;;;4.32;81.17;102604.96;1746839;81;21147;-73
2021/03/01 10:12:20;;;;;;;40.90;22.10;;;;;;;4.35;81.13;102616.69;1744856;81;21521;-74
2021/03/01 10:14:47;;;;;;;67.03;32.55;;;;;;;4.36;81.10;102616.23;1749587;81;21137;-74
2021/03/01 10:17:23;;;;;;;49.95;27.60;;;;;;;4.36;81.06;102621.52;1742667;81;21189;-73
2021/03/01 10:19:49;;;;;;;41.23;21.35;;;;;;;4.34;81.00;102626.86;1746716;80;21170;-73
2021/03/01 10:22:16;;;;;;;44.33;22.15;;;;;;;4.31;81.00;102622.19;1696821;81;21201;-73
2021/03/01 10:24:49;;;;;;;40.55;22.55;;;;;;;4.32;80.95;102628.73;1745409;81;22123;-73
2021/03/01 10:27:17;;;;;;;42.35;23.05;;;;;;;4.38;80.89;102623.14;1747953;81;21153;-74
2021/03/01 10:29:50;;;;;;;51.83;29.87;;;;;;;4.43;80.89;102615.82;1751204;81;21270;-73
2021/03/01 10:32:23;;;;;;;105.85;42.27;;;;;;;4.45;80.86;102621.91;1747808;81;21193;-74
2021/03/01 10:34:50;;;;;;;52.43;24.77;;;;;;;4.50;80.85;102621.69;1745868;81;21201;-73
2021/03/01 10:37:19;;;;;;;40.48;20.30;;;;;;;4.51;80.81;102626.02;1749683;81;22074;-73
2021/03/01 10:39:50;;;;;;;42.50;22.05;;;;;;;4.50;80.77;102625.16;1745209;81;21160;-71
2021/03/01 10:42:18;;;;;;;46.83;27.35;;;;;;;4.50;80.76;102622.52;1746976;81;21189;-72
2021/03/01 10:44:48;;;;;;;41.10;21.93;;;;;;;4.56;80.75;102628.44;1746099;81;21137;-74
2021/03/01 10:47:26;;;;;;;48.02;27.07;;;;;;;4.58;80.72;102626.09;1747945;81;21251;-72
2021/03/01 10:49:54;;;;;;;50.38;29.63;;;;;;;4.58;80.68;102629.20;1752210;81;21171;-74
2021/03/01 10:52:20;;;;;;;35.98;21.62;;;;;;;4.54;80.62;102634.64;1758237;81;21538;-74
2021/03/01 10:54:47;;;;;;;34.63;19.42;;;;;;;4.53;80.57;102637.38;1758862;81;21163;-74
2021/03/01 10:57:13;;;;;;;35.98;19.70;;;;;;;4.47;80.53;102641.16;1757595;81;21186;-74
2021/03/01 10:59:39;;;;;;;32.17;18.50;;;;;;;4.50;80.52;102638.36;1750275;81;21186;-74
2021/03/01 11:02:06;;;;;;;30.45;17.85;;;;;;;4.49;80.50;102638.45;1750111;81;22098;-74
2021/03/01 11:04:33;;;;;;;31.90;17.95;;;;;;;4.49;80.47;102636.67;1743677;81;21693;-74
2021/03/01 11:07:00;;;;;;;37.45;19.70;;;;;;;4.51;80.44;102632.16;1746484;81;21571;-72
2021/03/01 11:09:26;;;;;;;38.60;20.90;;;;;;;4.54;80.41;102628.03;1746524;81;21232;-72
2021/03/01 11:11:53;;;;;;;30.95;18.57;;;;;;;4.56;80.38;102620.51;1753684;81;21182;-74
2021/03/01 11:14:20;;;;;;;36.65;22.77;;;;;;;4.57;80.35;102626.20;1754818;81;22247;-74
2021/03/01 11:16:46;;;;;;;49.98;29.67;;;;;;;4.57;80.34;102627.52;1745256;81;21171;-74
2021/03/01 11:19:14;;;;;;;35.17;21.42;;;;;;;4.60;80.29;102628.67;1749973;81;21147;-74
2021/03/01 11:21:40;;;;;;;41.90;28.07;;;;;;;4.66;80.30;102619.11;1748509;81;21202;-74
2021/03/01 11:24:07;;;;;;;40.10;25.05;;;;;;;4.69;80.26;102622.45;1743586;81;21631;-74
2021/03/01 11:26:34;;;;;;;40.98;24.92;;;;;;;4.73;80.22;102621.83;1738670;81;22166;-74
2021/03/01 11:29:01;;;;;;;61.15;30.35;;;;;;;4.81;80.20;102618.34;1744962;81;21600;-74